sensor_id;sensor_type;location;lat;lon;timestamp;P1;durP1;ratioP1;P2;durP2;ratioP2
39410;SDS011;26579;43.238;23.124;2023-11-21T00:01:32;8.23;;;3.10;;
39410;SDS011;26579;43.238;23.124;2023-11-21T00:03:57;9.20;;;3.70;;
39410;SDS011;26579;43.238;23.124;2023-11-21T00:06:23;8.27;;;3.33;;
39410;SDS011;26579;43.238;23.124;2023-11-21T00:08:49;8.52;;;2.97;;
39410;SDS011;26579;43.238;23.124;2023-11-21T00:11:14;5.57;;;2.40;;
39410;SDS011;26579;43.238;23.124;2023-11-21T00:13:40;10.18;;;3.55;;
39410;SDS011;26579;43.238;23.124;2023-11-21T00:16:06;6.93;;;3.35;;
39410;SDS011;26579;43.238;23.124;2023-11-21T00:18:31;6.35;;;2.47;;
39410;SDS011;26579;43.238;23.124;2023-11-21T00:20:57;6.82;;;2.88;;
39410;SDS011;26579;43.238;23.124;2023-11-21T00:23:23;6.10;;;2.80;;
39410;SDS011;26579;43.238;23.124;2023-11-21T00:25:48;6.72;;;2.50;;
39410;SDS011;26579;43.238;23.124;2023-11-21T00:28:14;7.82;;;4.22;;
39410;SDS011;26579;43.238;23.124;2023-11-21T00:30:39;4.82;;;2.08;;
39410;SDS011;26579;43.238;23.124;2023-11-21T00:33:05;5.90;;;2.45;;
39410;SDS011;26579;43.238;23.124;2023-11-21T00:35:31;4.65;;;1.88;;
39410;SDS011;26579;43.238;23.124;2023-11-21T00:37:56;6.70;;;3.20;;
39410;SDS011;26579;43.238;23.124;2023-11-21T00:40:22;5.38;;;2.50;;
39410;SDS011;26579;43.238;23.124;2023-11-21T00:42:48;8.48;;;4.38;;
39410;SDS011;26579;43.238;23.124;2023-11-21T00:45:13;5.10;;;2.13;;
39410;SDS011;26579;43.238;23.124;2023-11-21T00:47:39;7.82;;;3.13;;
39410;SDS011;26579;43.238;23.124;2023-11-21T00:50:06;6.90;;;2.40;;
39410;SDS011;26579;43.238;23.124;2023-11-21T00:52:32;8.00;;;2.38;;
39410;SDS011;26579;43.238;23.124;2023-11-21T00:54:58;3.95;;;1.65;;
39410;SDS011;26579;43.238;23.124;2023-11-21T00:57:24;4.25;;;1.75;;
39410;SDS011;26579;43.238;23.124;2023-11-21T00:59:49;4.97;;;2.03;;
39410;SDS011;26579;43.238;23.124;2023-11-21T01:02:15;3.92;;;1.52;;
39410;SDS011;26579;43.238;23.124;2023-11-21T01:04:41;4.90;;;1.85;;
39410;SDS011;26579;43.238;23.124;2023-11-21T01:07:06;4.38;;;2.15;;
39410;SDS011;26579;43.238;23.124;2023-11-21T01:09:32;5.03;;;2.42;;
39410;SDS011;26579;43.238;23.124;2023-11-21T01:11:58;6.80;;;2.28;;
39410;SDS011;26579;43.238;23.124;2023-11-21T01:14:23;5.32;;;2.22;;
39410;SDS011;26579;43.238;23.124;2023-11-21T01:16:49;7.00;;;2.35;;
39410;SDS011;26579;43.238;23.124;2023-11-21T01:19:15;7.25;;;2.70;;
39410;SDS011;26579;43.238;23.124;2023-11-21T01:21:41;5.93;;;2.33;;
39410;SDS011;26579;43.238;23.124;2023-11-21T01:24:06;6.38;;;3.00;;
39410;SDS011;26579;43.238;23.124;2023-11-21T01:26:33;9.75;;;4.43;;
39410;SDS011;26579;43.238;23.124;2023-11-21T01:28:58;13.02;;;3.90;;
39410;SDS011;26579;43.238;23.124;2023-11-21T01:31:24;5.30;;;2.45;;
39410;SDS011;26579;43.238;23.124;2023-11-21T01:33:50;4.82;;;2.38;;
39410;SDS011;26579;43.238;23.124;2023-11-21T01:36:15;6.40;;;2.47;;
39410;SDS011;26579;43.238;23.124;2023-11-21T01:38:41;5.25;;;2.42;;
39410;SDS011;26579;43.238;23.124;2023-11-21T01:41:07;4.18;;;1.88;;
39410;SDS011;26579;43.238;23.124;2023-11-21T01:43:33;4.80;;;1.88;;
39410;SDS011;26579;43.238;23.124;2023-11-21T01:45:59;5.18;;;1.90;;
39410;SDS011;26579;43.238;23.124;2023-11-21T01:48:24;6.85;;;2.20;;
39410;SDS011;26579;43.238;23.124;2023-11-21T01:50:51;6.20;;;1.90;;
39410;SDS011;26579;43.238;23.124;2023-11-21T01:53:17;4.20;;;1.50;;
39410;SDS011;26579;43.238;23.124;2023-11-21T01:55:43;6.38;;;2.17;;
39410;SDS011;26579;43.238;23.124;2023-11-21T01:58:10;9.85;;;2.70;;
39410;SDS011;26579;43.238;23.124;2023-11-21T02:00:36;14.48;;;2.78;;
39410;SDS011;26579;43.238;23.124;2023-11-21T02:03:02;6.25;;;1.70;;
39410;SDS011;26579;43.238;23.124;2023-11-21T02:05:28;3.65;;;1.63;;
39410;SDS011;26579;43.238;23.124;2023-11-21T02:07:54;8.73;;;4.05;;
39410;SDS011;26579;43.238;23.124;2023-11-21T02:10:19;7.53;;;3.03;;
39410;SDS011;26579;43.238;23.124;2023-11-21T02:12:45;6.75;;;2.65;;
39410;SDS011;26579;43.238;23.124;2023-11-21T02:15:14;6.60;;;2.38;;
39410;SDS011;26579;43.238;23.124;2023-11-21T02:17:39;3.90;;;2.00;;
39410;SDS011;26579;43.238;23.124;2023-11-21T02:20:08;3.72;;;1.75;;
39410;SDS011;26579;43.238;23.124;2023-11-21T02:22:35;5.20;;;2.15;;
39410;SDS011;26579;43.238;23.124;2023-11-21T02:25:04;9.40;;;1.75;;
39410;SDS011;26579;43.238;23.124;2023-11-21T02:27:30;5.97;;;1.40;;
39410;SDS011;26579;43.238;23.124;2023-11-21T02:29:56;7.30;;;2.00;;
39410;SDS011;26579;43.238;23.124;2023-11-21T02:32:21;4.40;;;1.80;;
39410;SDS011;26579;43.238;23.124;2023-11-21T02:34:47;3.30;;;1.20;;
39410;SDS011;26579;43.238;23.124;2023-11-21T02:37:12;4.75;;;1.90;;
39410;SDS011;26579;43.238;23.124;2023-11-21T02:39:38;3.53;;;1.30;;
39410;SDS011;26579;43.238;23.124;2023-11-21T02:42:04;5.15;;;1.63;;
39410;SDS011;26579;43.238;23.124;2023-11-21T02:44:29;3.75;;;1.52;;
39410;SDS011;26579;43.238;23.124;2023-11-21T02:46:55;5.40;;;1.50;;
39410;SDS011;26579;43.238;23.124;2023-11-21T02:49:21;6.15;;;2.67;;
39410;SDS011;26579;43.238;23.124;2023-11-21T02:51:46;4.80;;;2.50;;
39410;SDS011;26579;43.238;23.124;2023-11-21T02:54:12;3.65;;;1.42;;
39410;SDS011;26579;43.238;23.124;2023-11-21T02:56:38;5.20;;;2.53;;
39410;SDS011;26579;43.238;23.124;2023-11-21T02:59:03;5.80;;;2.42;;
39410;SDS011;26579;43.238;23.124;2023-11-21T03:01:29;5.45;;;2.45;;
39410;SDS011;26579;43.238;23.124;2023-11-21T03:03:55;2.90;;;1.27;;
39410;SDS011;26579;43.238;23.124;2023-11-21T03:06:20;2.70;;;1.25;;
39410;SDS011;26579;43.238;23.124;2023-11-21T03:08:46;2.60;;;1.02;;
39410;SDS011;26579;43.238;23.124;2023-11-21T03:11:12;6.13;;;1.10;;
39410;SDS011;26579;43.238;23.124;2023-11-21T03:13:39;5.60;;;1.30;;
39410;SDS011;26579;43.238;23.124;2023-11-21T03:16:05;3.55;;;1.17;;
39410;SDS011;26579;43.238;23.124;2023-11-21T03:18:31;3.28;;;1.38;;
39410;SDS011;26579;43.238;23.124;2023-11-21T03:20:57;4.57;;;1.88;;
39410;SDS011;26579;43.238;23.124;2023-11-21T03:23:22;3.42;;;1.83;;
39410;SDS011;26579;43.238;23.124;2023-11-21T03:25:48;4.72;;;2.45;;
39410;SDS011;26579;43.238;23.124;2023-11-21T03:28:14;8.95;;;3.00;;
39410;SDS011;26579;43.238;23.124;2023-11-21T03:30:39;4.00;;;1.92;;
39410;SDS011;26579;43.238;23.124;2023-11-21T03:33:05;3.85;;;1.67;;
39410;SDS011;26579;43.238;23.124;2023-11-21T03:35:31;4.00;;;1.30;;
39410;SDS011;26579;43.238;23.124;2023-11-21T03:37:56;3.72;;;1.25;;
39410;SDS011;26579;43.238;23.124;2023-11-21T03:40:22;3.80;;;1.48;;
39410;SDS011;26579;43.238;23.124;2023-11-21T03:42:48;3.63;;;1.48;;
39410;SDS011;26579;43.238;23.124;2023-11-21T03:45:13;3.92;;;1.65;;
39410;SDS011;26579;43.238;23.124;2023-11-21T03:47:40;8.93;;;3.47;;
39410;SDS011;26579;43.238;23.124;2023-11-21T03:50:07;6.68;;;3.33;;
39410;SDS011;26579;43.238;23.124;2023-11-21T03:52:33;12.48;;;6.03;;
39410;SDS011;26579;43.238;23.124;2023-11-21T03:54:59;10.60;;;5.50;;
39410;SDS011;26579;43.238;23.124;2023-11-21T03:57:25;8.10;;;3.40;;
39410;SDS011;26579;43.238;23.124;2023-11-21T03:59:51;5.40;;;2.60;;
39410;SDS011;26579;43.238;23.124;2023-11-21T04:02:16;5.80;;;2.25;;
39410;SDS011;26579;43.238;23.124;2023-11-21T04:04:42;5.65;;;2.47;;
39410;SDS011;26579;43.238;23.124;2023-11-21T04:07:08;7.38;;;1.88;;
39410;SDS011;26579;43.238;23.124;2023-11-21T04:09:33;3.97;;;2.20;;
39410;SDS011;26579;43.238;23.124;2023-11-21T04:11:59;7.03;;;1.90;;
39410;SDS011;26579;43.238;23.124;2023-11-21T04:14:25;6.35;;;3.00;;
39410;SDS011;26579;43.238;23.124;2023-11-21T04:16:50;5.85;;;2.30;;
39410;SDS011;26579;43.238;23.124;2023-11-21T04:19:16;6.22;;;2.35;;
39410;SDS011;26579;43.238;23.124;2023-11-21T04:21:42;10.57;;;4.55;;
39410;SDS011;26579;43.238;23.124;2023-11-21T04:24:08;11.20;;;6.63;;
39410;SDS011;26579;43.238;23.124;2023-11-21T04:26:34;13.68;;;6.95;;
39410;SDS011;26579;43.238;23.124;2023-11-21T04:29:00;9.65;;;5.38;;
39410;SDS011;26579;43.238;23.124;2023-11-21T04:31:25;8.15;;;4.60;;
39410;SDS011;26579;43.238;23.124;2023-11-21T04:33:51;9.68;;;4.47;;
39410;SDS011;26579;43.238;23.124;2023-11-21T04:36:17;6.63;;;3.88;;
39410;SDS011;26579;43.238;23.124;2023-11-21T04:38:42;9.05;;;3.88;;
39410;SDS011;26579;43.238;23.124;2023-11-21T04:41:08;11.43;;;4.70;;
39410;SDS011;26579;43.238;23.124;2023-11-21T04:43:33;11.20;;;4.22;;
39410;SDS011;26579;43.238;23.124;2023-11-21T04:45:59;13.05;;;5.28;;
39410;SDS011;26579;43.238;23.124;2023-11-21T04:48:25;11.38;;;5.35;;
39410;SDS011;26579;43.238;23.124;2023-11-21T04:50:51;10.93;;;4.88;;
39410;SDS011;26579;43.238;23.124;2023-11-21T04:53:16;11.00;;;4.70;;
39410;SDS011;26579;43.238;23.124;2023-11-21T04:55:42;10.55;;;3.88;;
39410;SDS011;26579;43.238;23.124;2023-11-21T04:58:08;12.25;;;5.47;;
39410;SDS011;26579;43.238;23.124;2023-11-21T05:00:34;15.15;;;6.22;;
39410;SDS011;26579;43.238;23.124;2023-11-21T05:03:00;10.05;;;4.22;;
39410;SDS011;26579;43.238;23.124;2023-11-21T05:05:25;8.38;;;4.25;;
39410;SDS011;26579;43.238;23.124;2023-11-21T05:07:51;10.70;;;5.55;;
39410;SDS011;26579;43.238;23.124;2023-11-21T05:10:17;7.30;;;4.15;;
39410;SDS011;26579;43.238;23.124;2023-11-21T05:12:42;10.27;;;4.32;;
39410;SDS011;26579;43.238;23.124;2023-11-21T05:15:08;11.50;;;5.55;;
39410;SDS011;26579;43.238;23.124;2023-11-21T05:17:34;8.43;;;3.78;;
39410;SDS011;26579;43.238;23.124;2023-11-21T05:20:00;8.20;;;3.75;;
39410;SDS011;26579;43.238;23.124;2023-11-21T05:22:26;9.23;;;4.20;;
39410;SDS011;26579;43.238;23.124;2023-11-21T05:24:51;7.68;;;4.75;;
39410;SDS011;26579;43.238;23.124;2023-11-21T05:27:17;20.90;;;10.10;;
39410;SDS011;26579;43.238;23.124;2023-11-21T05:29:43;18.33;;;9.90;;
39410;SDS011;26579;43.238;23.124;2023-11-21T05:32:08;16.92;;;9.57;;
39410;SDS011;26579;43.238;23.124;2023-11-21T05:34:34;17.88;;;9.20;;
39410;SDS011;26579;43.238;23.124;2023-11-21T05:37:00;30.83;;;15.73;;
39410;SDS011;26579;43.238;23.124;2023-11-21T05:39:25;24.65;;;12.55;;
39410;SDS011;26579;43.238;23.124;2023-11-21T05:41:51;22.63;;;10.00;;
39410;SDS011;26579;43.238;23.124;2023-11-21T05:44:17;28.42;;;11.85;;
39410;SDS011;26579;43.238;23.124;2023-11-21T05:46:42;31.45;;;13.73;;
39410;SDS011;26579;43.238;23.124;2023-11-21T05:49:08;29.65;;;13.55;;
39410;SDS011;26579;43.238;23.124;2023-11-21T05:51:34;29.25;;;14.63;;
39410;SDS011;26579;43.238;23.124;2023-11-21T05:53:59;32.47;;;14.38;;
39410;SDS011;26579;43.238;23.124;2023-11-21T05:56:25;17.50;;;8.88;;
39410;SDS011;26579;43.238;23.124;2023-11-21T05:58:51;16.17;;;9.13;;
39410;SDS011;26579;43.238;23.124;2023-11-21T06:01:16;16.88;;;8.85;;
39410;SDS011;26579;43.238;23.124;2023-11-21T06:03:42;30.73;;;15.10;;
39410;SDS011;26579;43.238;23.124;2023-11-21T06:06:08;32.75;;;16.85;;
39410;SDS011;26579;43.238;23.124;2023-11-21T06:08:34;47.63;;;22.95;;
39410;SDS011;26579;43.238;23.124;2023-11-21T06:10:59;35.22;;;19.10;;
39410;SDS011;26579;43.238;23.124;2023-11-21T06:13:25;30.40;;;16.83;;
39410;SDS011;26579;43.238;23.124;2023-11-21T06:15:50;22.98;;;12.32;;
39410;SDS011;26579;43.238;23.124;2023-11-21T06:18:16;19.60;;;10.18;;
39410;SDS011;26579;43.238;23.124;2023-11-21T06:20:42;18.27;;;9.95;;
39410;SDS011;26579;43.238;23.124;2023-11-21T06:23:07;20.55;;;10.93;;
39410;SDS011;26579;43.238;23.124;2023-11-21T06:25:33;14.95;;;8.80;;
39410;SDS011;26579;43.238;23.124;2023-11-21T06:27:59;15.07;;;8.13;;
39410;SDS011;26579;43.238;23.124;2023-11-21T06:30:25;16.20;;;8.73;;
39410;SDS011;26579;43.238;23.124;2023-11-21T06:32:50;16.50;;;9.27;;
39410;SDS011;26579;43.238;23.124;2023-11-21T06:35:16;20.92;;;13.07;;
39410;SDS011;26579;43.238;23.124;2023-11-21T06:37:42;11.18;;;6.00;;
39410;SDS011;26579;43.238;23.124;2023-11-21T06:40:07;13.52;;;7.93;;
39410;SDS011;26579;43.238;23.124;2023-11-21T06:42:34;19.85;;;10.68;;
39410;SDS011;26579;43.238;23.124;2023-11-21T06:44:59;25.25;;;14.00;;
39410;SDS011;26579;43.238;23.124;2023-11-21T06:47:25;56.17;;;29.80;;
39410;SDS011;26579;43.238;23.124;2023-11-21T06:49:51;67.47;;;32.15;;
39410;SDS011;26579;43.238;23.124;2023-11-21T06:52:21;79.57;;;39.00;;
39410;SDS011;26579;43.238;23.124;2023-11-21T06:54:46;80.50;;;39.25;;
39410;SDS011;26579;43.238;23.124;2023-11-21T06:57:12;51.33;;;29.55;;
39410;SDS011;26579;43.238;23.124;2023-11-21T06:59:38;27.10;;;16.23;;
39410;SDS011;26579;43.238;23.124;2023-11-21T07:02:04;22.02;;;13.15;;
39410;SDS011;26579;43.238;23.124;2023-11-21T07:04:30;26.25;;;13.35;;
39410;SDS011;26579;43.238;23.124;2023-11-21T07:06:56;22.58;;;11.68;;
39410;SDS011;26579;43.238;23.124;2023-11-21T07:09:21;25.20;;;14.65;;
39410;SDS011;26579;43.238;23.124;2023-11-21T07:11:50;27.85;;;16.95;;
39410;SDS011;26579;43.238;23.124;2023-11-21T07:14:16;37.75;;;24.60;;
39410;SDS011;26579;43.238;23.124;2023-11-21T07:16:42;39.38;;;26.58;;
39410;SDS011;26579;43.238;23.124;2023-11-21T07:19:08;42.33;;;27.88;;
39410;SDS011;26579;43.238;23.124;2023-11-21T07:21:34;33.67;;;24.60;;
39410;SDS011;26579;43.238;23.124;2023-11-21T07:24:01;32.20;;;23.00;;
39410;SDS011;26579;43.238;23.124;2023-11-21T07:26:27;19.67;;;11.38;;
39410;SDS011;26579;43.238;23.124;2023-11-21T07:28:54;15.77;;;10.93;;
39410;SDS011;26579;43.238;23.124;2023-11-21T07:31:20;17.00;;;10.25;;
39410;SDS011;26579;43.238;23.124;2023-11-21T07:33:46;16.50;;;11.07;;
39410;SDS011;26579;43.238;23.124;2023-11-21T07:36:13;16.23;;;10.75;;
39410;SDS011;26579;43.238;23.124;2023-11-21T07:38:39;19.92;;;12.63;;
39410;SDS011;26579;43.238;23.124;2023-11-21T07:41:05;24.77;;;14.80;;
39410;SDS011;26579;43.238;23.124;2023-11-21T07:43:31;25.83;;;15.15;;
39410;SDS011;26579;43.238;23.124;2023-11-21T07:45:56;24.17;;;14.70;;
39410;SDS011;26579;43.238;23.124;2023-11-21T07:48:22;18.00;;;10.85;;
39410;SDS011;26579;43.238;23.124;2023-11-21T07:50:49;16.67;;;10.95;;
39410;SDS011;26579;43.238;23.124;2023-11-21T07:53:14;17.55;;;10.35;;
39410;SDS011;26579;43.238;23.124;2023-11-21T07:55:40;19.35;;;12.35;;
39410;SDS011;26579;43.238;23.124;2023-11-21T07:58:06;26.00;;;15.77;;
39410;SDS011;26579;43.238;23.124;2023-11-21T08:00:31;21.45;;;14.88;;
39410;SDS011;26579;43.238;23.124;2023-11-21T08:02:57;35.35;;;20.80;;
39410;SDS011;26579;43.238;23.124;2023-11-21T08:05:22;35.85;;;24.38;;
39410;SDS011;26579;43.238;23.124;2023-11-21T08:07:48;61.47;;;29.20;;
39410;SDS011;26579;43.238;23.124;2023-11-21T08:10:14;27.58;;;18.15;;
39410;SDS011;26579;43.238;23.124;2023-11-21T08:12:39;29.48;;;22.35;;
39410;SDS011;26579;43.238;23.124;2023-11-21T08:15:05;27.15;;;19.10;;
39410;SDS011;26579;43.238;23.124;2023-11-21T08:17:32;22.45;;;15.32;;
39410;SDS011;26579;43.238;23.124;2023-11-21T08:19:58;23.70;;;13.75;;
39410;SDS011;26579;43.238;23.124;2023-11-21T08:22:23;15.10;;;9.18;;
39410;SDS011;26579;43.238;23.124;2023-11-21T08:24:49;16.35;;;10.88;;
39410;SDS011;26579;43.238;23.124;2023-11-21T08:27:15;13.27;;;8.02;;
39410;SDS011;26579;43.238;23.124;2023-11-21T08:29:41;21.33;;;13.75;;
39410;SDS011;26579;43.238;23.124;2023-11-21T08:32:07;11.48;;;7.13;;
39410;SDS011;26579;43.238;23.124;2023-11-21T08:34:33;11.88;;;7.38;;
39410;SDS011;26579;43.238;23.124;2023-11-21T08:36:58;9.35;;;6.38;;
39410;SDS011;26579;43.238;23.124;2023-11-21T08:39:24;7.85;;;5.25;;
39410;SDS011;26579;43.238;23.124;2023-11-21T08:41:50;9.32;;;5.97;;
39410;SDS011;26579;43.238;23.124;2023-11-21T08:44:16;11.27;;;6.40;;
39410;SDS011;26579;43.238;23.124;2023-11-21T08:46:42;8.05;;;5.70;;
39410;SDS011;26579;43.238;23.124;2023-11-21T08:49:08;6.50;;;4.35;;
39410;SDS011;26579;43.238;23.124;2023-11-21T08:51:33;9.77;;;4.70;;
39410;SDS011;26579;43.238;23.124;2023-11-21T08:53:59;8.00;;;4.20;;
39410;SDS011;26579;43.238;23.124;2023-11-21T08:56:24;5.35;;;3.20;;
39410;SDS011;26579;43.238;23.124;2023-11-21T08:58:50;5.60;;;3.45;;
39410;SDS011;26579;43.238;23.124;2023-11-21T09:01:16;8.27;;;3.33;;
39410;SDS011;26579;43.238;23.124;2023-11-21T09:03:41;11.15;;;5.63;;
39410;SDS011;26579;43.238;23.124;2023-11-21T09:06:07;9.32;;;4.30;;
39410;SDS011;26579;43.238;23.124;2023-11-21T09:08:33;7.57;;;3.17;;
39410;SDS011;26579;43.238;23.124;2023-11-21T09:10:58;6.40;;;4.38;;
39410;SDS011;26579;43.238;23.124;2023-11-21T09:13:24;5.45;;;2.85;;
39410;SDS011;26579;43.238;23.124;2023-11-21T09:15:50;4.85;;;3.30;;
39410;SDS011;26579;43.238;23.124;2023-11-21T09:18:15;8.80;;;4.10;;
39410;SDS011;26579;43.238;23.124;2023-11-21T09:20:42;9.65;;;7.15;;
39410;SDS011;26579;43.238;23.124;2023-11-21T09:23:08;8.50;;;5.32;;
39410;SDS011;26579;43.238;23.124;2023-11-21T09:25:33;7.85;;;5.80;;
39410;SDS011;26579;43.238;23.124;2023-11-21T09:27:59;5.10;;;3.05;;
39410;SDS011;26579;43.238;23.124;2023-11-21T09:30:24;4.28;;;2.80;;
39410;SDS011;26579;43.238;23.124;2023-11-21T09:32:50;5.88;;;4.30;;
39410;SDS011;26579;43.238;23.124;2023-11-21T09:35:17;7.28;;;4.75;;
39410;SDS011;26579;43.238;23.124;2023-11-21T09:37:43;5.43;;;3.60;;
39410;SDS011;26579;43.238;23.124;2023-11-21T09:40:10;7.50;;;6.70;;
39410;SDS011;26579;43.238;23.124;2023-11-21T09:42:38;4.00;;;2.60;;
39410;SDS011;26579;43.238;23.124;2023-11-21T09:47:42;3.78;;;2.38;;
39410;SDS011;26579;43.238;23.124;2023-11-21T09:50:08;6.38;;;4.68;;
39410;SDS011;26579;43.238;23.124;2023-11-21T09:52:37;5.68;;;2.28;;
39410;SDS011;26579;43.238;23.124;2023-11-21T09:55:14;5.88;;;2.15;;
39410;SDS011;26579;43.238;23.124;2023-11-21T09:57:43;6.70;;;5.60;;
39410;SDS011;26579;43.238;23.124;2023-11-21T10:00:10;5.03;;;3.40;;
39410;SDS011;26579;43.238;23.124;2023-11-21T10:02:40;4.55;;;2.45;;
39410;SDS011;26579;43.238;23.124;2023-11-21T10:05:06;4.53;;;3.22;;
39410;SDS011;26579;43.238;23.124;2023-11-21T10:07:32;8.35;;;4.57;;
39410;SDS011;26579;43.238;23.124;2023-11-21T10:10:00;5.65;;;2.55;;
39410;SDS011;26579;43.238;23.124;2023-11-21T10:12:26;4.15;;;1.75;;
39410;SDS011;26579;43.238;23.124;2023-11-21T10:14:54;2.35;;;1.48;;
39410;SDS011;26579;43.238;23.124;2023-11-21T10:17:23;2.08;;;1.30;;
39410;SDS011;26579;43.238;23.124;2023-11-21T10:19:53;3.75;;;1.67;;
39410;SDS011;26579;43.238;23.124;2023-11-21T10:22:19;3.40;;;2.00;;
39410;SDS011;26579;43.238;23.124;2023-11-21T10:24:46;2.10;;;1.20;;
39410;SDS011;26579;43.238;23.124;2023-11-21T10:27:11;1.95;;;1.10;;
39410;SDS011;26579;43.238;23.124;2023-11-21T10:29:37;1.73;;;1.00;;
39410;SDS011;26579;43.238;23.124;2023-11-21T10:32:05;2.00;;;1.25;;
39410;SDS011;26579;43.238;23.124;2023-11-21T10:34:31;3.85;;;1.48;;
39410;SDS011;26579;43.238;23.124;2023-11-21T10:36:57;4.07;;;1.50;;
39410;SDS011;26579;43.238;23.124;2023-11-21T10:39:22;3.50;;;1.85;;
39410;SDS011;26579;43.238;23.124;2023-11-21T10:41:48;9.40;;;3.58;;
39410;SDS011;26579;43.238;23.124;2023-11-21T10:44:15;8.90;;;6.00;;
39410;SDS011;26579;43.238;23.124;2023-11-21T10:46:42;5.68;;;3.70;;
39410;SDS011;26579;43.238;23.124;2023-11-21T10:49:07;6.97;;;2.65;;
39410;SDS011;26579;43.238;23.124;2023-11-21T10:51:33;2.65;;;1.70;;
39410;SDS011;26579;43.238;23.124;2023-11-21T10:53:59;2.53;;;1.50;;
39410;SDS011;26579;43.238;23.124;2023-11-21T10:56:24;6.32;;;3.75;;
39410;SDS011;26579;43.238;23.124;2023-11-21T10:58:52;9.35;;;4.72;;
39410;SDS011;26579;43.238;23.124;2023-11-21T11:01:18;5.15;;;2.30;;
39410;SDS011;26579;43.238;23.124;2023-11-21T11:03:45;3.10;;;0.98;;
39410;SDS011;26579;43.238;23.124;2023-11-21T11:06:11;1.58;;;0.85;;
39410;SDS011;26579;43.238;23.124;2023-11-21T11:08:38;3.83;;;2.03;;
39410;SDS011;26579;43.238;23.124;2023-11-21T11:11:05;1.98;;;1.35;;
39410;SDS011;26579;43.238;23.124;2023-11-21T11:13:31;2.95;;;1.60;;
39410;SDS011;26579;43.238;23.124;2023-11-21T11:16:00;4.10;;;2.40;;
39410;SDS011;26579;43.238;23.124;2023-11-21T11:18:27;4.43;;;2.30;;
39410;SDS011;26579;43.238;23.124;2023-11-21T11:20:53;5.72;;;3.03;;
39410;SDS011;26579;43.238;23.124;2023-11-21T11:31:50;2.28;;;1.30;;
39410;SDS011;26579;43.238;23.124;2023-11-21T11:37:35;4.45;;;2.63;;
39410;SDS011;26579;43.238;23.124;2023-11-21T11:40:01;7.13;;;2.38;;
39410;SDS011;26579;43.238;23.124;2023-11-21T11:42:32;7.22;;;2.80;;
39410;SDS011;26579;43.238;23.124;2023-11-21T11:44:58;4.53;;;2.78;;
39410;SDS011;26579;43.238;23.124;2023-11-21T11:47:27;3.13;;;1.95;;
39410;SDS011;26579;43.238;23.124;2023-11-21T11:54:59;3.45;;;1.85;;
39410;SDS011;26579;43.238;23.124;2023-11-21T11:57:25;6.45;;;3.00;;
39410;SDS011;26579;43.238;23.124;2023-11-21T12:00:06;7.95;;;3.45;;
39410;SDS011;26579;43.238;23.124;2023-11-21T12:02:33;7.82;;;3.78;;
39410;SDS011;26579;43.238;23.124;2023-11-21T12:04:59;7.15;;;3.70;;
39410;SDS011;26579;43.238;23.124;2023-11-21T12:07:26;3.92;;;1.67;;
39410;SDS011;26579;43.238;23.124;2023-11-21T12:10:13;3.55;;;1.65;;
39410;SDS011;26579;43.238;23.124;2023-11-21T12:12:44;2.72;;;1.42;;
39410;SDS011;26579;43.238;23.124;2023-11-21T12:15:11;3.30;;;1.88;;
39410;SDS011;26579;43.238;23.124;2023-11-21T12:17:37;4.45;;;2.40;;
39410;SDS011;26579;43.238;23.124;2023-11-21T12:20:04;3.42;;;1.75;;
39410;SDS011;26579;43.238;23.124;2023-11-21T12:22:30;3.58;;;2.15;;
39410;SDS011;26579;43.238;23.124;2023-11-21T12:24:56;9.07;;;3.30;;
39410;SDS011;26579;43.238;23.124;2023-11-21T12:27:22;8.30;;;4.03;;
39410;SDS011;26579;43.238;23.124;2023-11-21T12:29:48;4.57;;;2.40;;
39410;SDS011;26579;43.238;23.124;2023-11-21T12:32:13;4.35;;;2.28;;
39410;SDS011;26579;43.238;23.124;2023-11-21T12:34:39;7.97;;;3.22;;
39410;SDS011;26579;43.238;23.124;2023-11-21T12:37:06;7.22;;;3.65;;
39410;SDS011;26579;43.238;23.124;2023-11-21T12:39:32;5.90;;;3.20;;
39410;SDS011;26579;43.238;23.124;2023-11-21T12:41:57;9.25;;;3.47;;
39410;SDS011;26579;43.238;23.124;2023-11-21T12:44:23;7.13;;;4.10;;
39410;SDS011;26579;43.238;23.124;2023-11-21T12:46:49;9.18;;;4.63;;
39410;SDS011;26579;43.238;23.124;2023-11-21T12:49:15;6.85;;;3.97;;
39410;SDS011;26579;43.238;23.124;2023-11-21T12:51:41;6.50;;;3.42;;
39410;SDS011;26579;43.238;23.124;2023-11-21T12:54:07;9.52;;;4.85;;
39410;SDS011;26579;43.238;23.124;2023-11-21T12:56:33;13.63;;;5.82;;
39410;SDS011;26579;43.238;23.124;2023-11-21T12:58:59;7.13;;;4.07;;
39410;SDS011;26579;43.238;23.124;2023-11-21T13:01:25;15.32;;;6.97;;
39410;SDS011;26579;43.238;23.124;2023-11-21T13:03:51;8.93;;;5.32;;
39410;SDS011;26579;43.238;23.124;2023-11-21T13:06:17;7.10;;;4.03;;
39410;SDS011;26579;43.238;23.124;2023-11-21T13:08:44;5.00;;;3.08;;
39410;SDS011;26579;43.238;23.124;2023-11-21T13:11:10;6.63;;;3.45;;
39410;SDS011;26579;43.238;23.124;2023-11-21T13:13:36;8.48;;;4.00;;
39410;SDS011;26579;43.238;23.124;2023-11-21T13:16:05;7.53;;;4.00;;
39410;SDS011;26579;43.238;23.124;2023-11-21T13:18:31;6.50;;;3.10;;
39410;SDS011;26579;43.238;23.124;2023-11-21T13:20:58;4.95;;;3.20;;
39410;SDS011;26579;43.238;23.124;2023-11-21T13:23:26;6.65;;;4.30;;
39410;SDS011;26579;43.238;23.124;2023-11-21T13:25:52;14.38;;;6.78;;
39410;SDS011;26579;43.238;23.124;2023-11-21T13:28:19;14.68;;;8.35;;
39410;SDS011;26579;43.238;23.124;2023-11-21T13:30:44;19.15;;;9.18;;
39410;SDS011;26579;43.238;23.124;2023-11-21T13:33:10;13.60;;;6.32;;
39410;SDS011;26579;43.238;23.124;2023-11-21T13:35:39;7.85;;;4.90;;
39410;SDS011;26579;43.238;23.124;2023-11-21T13:38:05;12.07;;;7.88;;
39410;SDS011;26579;43.238;23.124;2023-11-21T13:40:36;27.52;;;16.67;;
39410;SDS011;26579;43.238;23.124;2023-11-21T13:43:03;18.70;;;11.80;;
39410;SDS011;26579;43.238;23.124;2023-11-21T13:45:28;13.90;;;8.50;;
39410;SDS011;26579;43.238;23.124;2023-11-21T13:47:54;19.33;;;9.88;;
39410;SDS011;26579;43.238;23.124;2023-11-21T13:50:20;16.00;;;8.10;;
39410;SDS011;26579;43.238;23.124;2023-11-21T13:52:45;14.57;;;8.40;;
39410;SDS011;26579;43.238;23.124;2023-11-21T13:55:11;15.98;;;9.82;;
39410;SDS011;26579;43.238;23.124;2023-11-21T13:57:37;12.93;;;8.75;;
39410;SDS011;26579;43.238;23.124;2023-11-21T14:00:02;9.70;;;5.15;;
39410;SDS011;26579;43.238;23.124;2023-11-21T14:02:29;9.38;;;5.00;;
39410;SDS011;26579;43.238;23.124;2023-11-21T14:04:55;7.35;;;4.28;;
39410;SDS011;26579;43.238;23.124;2023-11-21T14:07:21;12.63;;;8.85;;
39410;SDS011;26579;43.238;23.124;2023-11-21T14:09:48;19.60;;;14.32;;
39410;SDS011;26579;43.238;23.124;2023-11-21T14:12:14;14.80;;;9.40;;
39410;SDS011;26579;43.238;23.124;2023-11-21T14:14:39;11.25;;;8.80;;
39410;SDS011;26579;43.238;23.124;2023-11-21T14:17:05;7.00;;;4.97;;
39410;SDS011;26579;43.238;23.124;2023-11-21T14:19:31;7.65;;;4.93;;
39410;SDS011;26579;43.238;23.124;2023-11-21T14:21:56;18.73;;;12.25;;
39410;SDS011;26579;43.238;23.124;2023-11-21T14:24:22;16.58;;;10.98;;
39410;SDS011;26579;43.238;23.124;2023-11-21T14:26:47;30.65;;;19.42;;
39410;SDS011;26579;43.238;23.124;2023-11-21T14:29:14;40.35;;;25.15;;
39410;SDS011;26579;43.238;23.124;2023-11-21T14:31:41;18.10;;;11.00;;
39410;SDS011;26579;43.238;23.124;2023-11-21T14:34:07;21.58;;;13.68;;
39410;SDS011;26579;43.238;23.124;2023-11-21T14:36:33;23.70;;;15.05;;
39410;SDS011;26579;43.238;23.124;2023-11-21T14:38:59;19.55;;;12.20;;